Аэропорт: Бухта Провидения. Провидения

ICAO: UHMD

METAR:
2021-04-21 20:30:00
UHMD 212030Z 18003MPS CAVOK M02/M08 Q1033 RMK QFE774/1032
METAR:
Информация по данной станции не доступна